Time;durP1;ratioP1;P1;durP2;ratioP2;P2;SDS_P1;SDS_P2;PMS_P1;PMS_P2;Temp;Humidity;BMP_temperature;BMP_pressure;BME280_temperature;BME280_humidity;BME280_pressure;Samples;Min_cycle;Max_cycle;Signal;HPM_P1;HPM_P2
2024/02/09 00:00:29;;;;;;;15.55;4.28;;;11.50;99.90;;;;;;4271272;27;20484;-67
2024/02/09 00:02:31;;;;;;;12.52;3.63;;;11.50;99.90;;;;;;4270564;27;20412;-71
2024/02/09 00:04:34;;;;;;;10.07;3.90;;;11.50;99.90;;;;;;4269410;27;20538;-68
2024/02/09 00:06:36;;;;;;;13.50;4.60;;;11.60;99.90;;;;;;4267310;27;20126;-68
2024/02/09 00:08:40;;;;;;;14.35;3.92;;;11.50;99.90;;;;;;4267666;27;20047;-70
2024/02/09 00:10:43;;;;;;;14.83;3.97;;;11.50;99.90;;;;;;4267850;27;20043;-68
2024/02/09 00:12:47;;;;;;;10.48;4.05;;;11.60;99.90;;;;;;4267215;27;21036;-69
2024/02/09 00:14:51;;;;;;;14.50;4.22;;;11.50;99.90;;;;;;4267047;27;20039;-69
2024/02/09 00:16:53;;;;;;;15.93;4.35;;;11.50;99.90;;;;;;4267104;27;20043;-67
2024/02/09 00:18:56;;;;;;;10.40;3.92;;;11.50;99.90;;;;;;4267328;27;20047;-68
2024/02/09 00:20:58;;;;;;;10.73;3.67;;;11.50;99.90;;;;;;4266699;27;20047;-68
2024/02/09 00:23:00;;;;;;;22.85;4.47;;;11.60;99.90;;;;;;4267770;27;20057;-69
2024/02/09 00:25:08;;;;;;;14.20;4.07;;;11.60;99.90;;;;;;4250184;27;20051;-70
2024/02/09 00:27:11;;;;;;;11.77;4.03;;;11.60;99.90;;;;;;4267460;27;20039;-69
2024/02/09 00:29:13;;;;;;;13.35;3.92;;;11.60;99.90;;;;;;4267148;27;20096;-67
2024/02/09 00:31:17;;;;;;;14.05;4.30;;;11.60;99.90;;;;;;4266986;27;20062;-69
2024/02/09 00:33:19;;;;;;;11.93;3.70;;;11.60;99.90;;;;;;4266728;27;20043;-68
2024/02/09 00:35:24;;;;;;;9.13;3.25;;;11.60;99.90;;;;;;4266361;27;20442;-66
2024/02/09 00:37:38;;;;;;;14.10;3.75;;;11.60;99.90;;;;;;4266735;27;20050;-66
2024/02/09 00:39:42;;;;;;;11.60;4.05;;;11.60;99.90;;;;;;4266673;27;20050;-66
2024/02/09 00:41:44;;;;;;;9.63;2.60;;;11.70;99.90;;;;;;4266806;27;20111;-67
2024/02/09 00:43:46;;;;;;;15.18;3.90;;;11.70;99.90;;;;;;4266753;27;20043;-65
2024/02/09 00:45:51;;;;;;;13.57;3.60;;;11.70;99.90;;;;;;4248332;27;20490;-66
2024/02/09 00:47:55;;;;;;;11.48;3.75;;;11.70;99.90;;;;;;4267042;27;20042;-65
2024/02/09 00:50:00;;;;;;;10.30;3.30;;;11.80;99.90;;;;;;4266653;27;20107;-70
2024/02/09 00:52:02;;;;;;;;;;;11.80;99.90;;;;;;4267520;27;20054;-65
2024/02/09 00:54:04;;;;;;;9.30;3.33;;;11.70;99.90;;;;;;4266621;27;19950;-66
2024/02/09 00:56:06;;;;;;;9.93;3.13;;;11.70;99.90;;;;;;4247956;27;20122;-66
2024/02/09 00:58:11;;;;;;;12.63;3.53;;;11.80;99.90;;;;;;4266278;27;20468;-65
2024/02/09 01:00:14;;;;;;;;;;;11.80;99.90;;;;;;4266646;27;20043;-66
2024/02/09 01:02:17;;;;;;;11.55;2.92;;;11.70;99.90;;;;;;4247750;27;19933;-68
2024/02/09 01:04:21;;;;;;;14.57;4.10;;;11.70;99.90;;;;;;4265753;27;20047;-67
2024/02/09 01:06:24;;;;;;;12.85;3.40;;;11.80;99.90;;;;;;4266362;27;20458;-67
2024/02/09 01:08:27;;;;;;;7.97;3.05;;;11.80;99.90;;;;;;4266459;27;20053;-68
2024/02/09 01:10:32;;;;;;;9.85;3.30;;;11.80;99.90;;;;;;4265933;27;20038;-66
2024/02/09 02:46:15;;;;;;;11.95;3.00;;;11.60;99.90;;;;;;4264468;27;20046;-72
2024/02/09 03:04:46;;;;;;;10.60;2.85;;;11.70;99.90;;;;;;4264517;27;20078;-67
2024/02/09 03:06:48;;;;;;;7.50;2.42;;;11.60;99.90;;;;;;4264785;27;20069;-67
2024/02/09 03:09:10;;;;;;;6.70;2.35;;;11.70;99.90;;;;;;4264477;27;20050;-66
2024/02/09 03:11:12;;;;;;;10.20;2.80;;;11.70;99.90;;;;;;4265033;27;20046;-68
2024/02/09 03:13:16;;;;;;;7.68;2.55;;;11.70;99.90;;;;;;4264835;27;20486;-67
2024/02/09 03:15:18;;;;;;;5.03;2.60;;;11.70;99.90;;;;;;4264095;27;20043;-67
2024/02/09 03:17:20;;;;;;;10.30;2.40;;;11.70;99.90;;;;;;4265013;27;20078;-68
2024/02/09 03:19:22;;;;;;;10.77;2.50;;;11.70;99.90;;;;;;4265769;27;20043;-66
2024/02/09 03:21:27;;;;;;;10.23;2.55;;;11.70;99.90;;;;;;4265321;27;20126;-65
2024/02/09 03:23:29;;;;;;;10.90;3.05;;;11.70;99.90;;;;;;4264724;27;20050;-66
2024/02/09 03:39:53;;;;;;;7.53;2.50;;;11.70;99.90;;;;;;4263131;27;20167;-67
2024/02/09 03:41:55;;;;;;;8.73;2.72;;;11.60;99.90;;;;;;4267692;27;20043;-69
2024/02/09 03:44:03;;;;;;;6.18;2.60;;;11.60;99.90;;;;;;4267398;27;20126;-68
2024/02/09 03:46:07;;;;;;;7.10;2.33;;;11.60;99.90;;;;;;4267552;27;20103;-67
2024/02/09 03:48:09;;;;;;;8.30;3.03;;;11.60;99.90;;;;;;4249375;27;20126;-68
2024/02/09 03:50:13;;;;;;;5.30;2.08;;;11.70;99.90;;;;;;4267719;27;20095;-67
2024/02/09 03:52:18;;;;;;;9.32;3.13;;;11.70;99.90;;;;;;4267406;27;20386;-72
2024/02/09 03:54:20;;;;;;;9.05;2.58;;;11.70;99.90;;;;;;4267129;27;20158;-68
2024/02/09 03:56:24;;;;;;;6.13;2.42;;;11.70;99.90;;;;;;4268583;27;20043;-66
2024/02/09 03:58:26;;;;;;;8.85;3.03;;;11.70;99.90;;;;;;4268674;27;20047;-67
2024/02/09 04:00:28;;;;;;;7.70;2.95;;;11.70;99.90;;;;;;4269206;27;20042;-68
2024/02/09 04:02:30;;;;;;;8.75;2.70;;;11.70;99.90;;;;;;4268606;27;20050;-67
2024/02/09 04:04:32;;;;;;;7.22;2.85;;;11.70;99.90;;;;;;4268678;27;20046;-71
2024/02/09 04:06:34;;;;;;;8.10;2.10;;;11.70;99.90;;;;;;4268151;27;20049;-68
2024/02/09 04:08:45;;;;;;;7.18;2.70;;;11.70;99.90;;;;;;4267440;27;20112;-69
2024/02/09 04:10:47;;;;;;;6.38;2.67;;;11.70;99.90;;;;;;4267417;27;20051;-69
2024/02/09 04:12:50;;;;;;;7.07;2.53;;;11.80;99.90;;;;;;4267145;27;20427;-68
2024/02/09 04:14:52;;;;;;;9.00;2.97;;;11.80;99.90;;;;;;4267399;27;20045;-68
2024/02/09 04:16:55;;;;;;;7.03;2.10;;;11.80;99.90;;;;;;4267453;27;20046;-66
2024/02/09 04:19:02;;;;;;;8.95;2.50;;;11.80;99.90;;;;;;4267361;27;20061;-68
2024/02/09 04:21:10;;;;;;;11.75;2.97;;;11.70;99.90;;;;;;4267032;27;20211;-67
2024/02/09 04:23:12;;;;;;;6.00;2.45;;;11.80;99.90;;;;;;4267165;27;20129;-67
2024/02/09 04:25:14;;;;;;;7.85;2.30;;;11.80;99.90;;;;;;4266956;27;20077;-67
2024/02/09 04:27:17;;;;;;;6.95;2.45;;;11.70;99.90;;;;;;4266514;27;20106;-67
2024/02/09 04:29:22;;;;;;;6.78;3.00;;;11.70;99.90;;;;;;4266795;27;20047;-67
2024/02/09 04:31:26;;;;;;;5.95;2.30;;;11.70;99.90;;;;;;4267156;27;20666;-68
2024/02/09 04:33:33;;;;;;;8.48;2.33;;;11.60;99.90;;;;;;4266368;27;20046;-67
2024/02/09 04:35:37;;;;;;;6.07;2.40;;;11.60;99.90;;;;;;4266731;27;20039;-67
2024/02/09 04:37:39;;;;;;;8.27;2.72;;;11.60;99.90;;;;;;4250536;27;20223;-67
2024/02/09 04:39:41;;;;;;;11.02;2.85;;;11.70;99.90;;;;;;4249907;27;20047;-67
2024/02/09 04:41:49;;;;;;;11.57;2.30;;;11.70;99.90;;;;;;4249533;27;20054;-67
2024/02/09 04:43:52;;;;;;;7.85;2.60;;;11.80;99.90;;;;;;4249526;27;20051;-67
2024/02/09 04:45:56;;;;;;;7.85;2.20;;;11.70;99.90;;;;;;4249067;27;20046;-67
2024/02/09 04:47:58;;;;;;;6.85;2.22;;;11.80;99.90;;;;;;4249364;27;20050;-66
2024/02/09 04:50:01;;;;;;;7.43;2.08;;;11.80;99.90;;;;;;4249418;27;20080;-68
2024/02/09 04:52:03;;;;;;;9.77;2.50;;;11.90;99.90;;;;;;4249706;27;20039;-67
2024/02/09 04:54:06;;;;;;;6.32;2.35;;;11.90;99.90;;;;;;4249087;27;20567;-68
2024/02/09 04:56:09;;;;;;;7.75;2.08;;;11.90;99.90;;;;;;4249025;27;20113;-68
2024/02/09 04:58:13;;;;;;;7.30;2.22;;;12.00;99.90;;;;;;4249164;27;20054;-67
2024/02/09 05:00:16;;;;;;;9.93;2.67;;;12.00;99.90;;;;;;4249280;27;20070;-67
2024/02/09 05:02:19;;;;;;;5.60;2.25;;;12.00;99.90;;;;;;4230891;28;20568;-67
2024/02/09 05:04:21;;;;;;;9.80;2.97;;;12.00;99.90;;;;;;4249182;27;20050;-68
2024/02/09 05:06:24;;;;;;;10.02;2.35;;;12.10;99.90;;;;;;4248866;27;20043;-68
2024/02/09 05:08:26;;;;;;;7.18;2.55;;;12.10;99.90;;;;;;4249289;27;20044;-67
2024/02/09 05:10:28;;;;;;;10.82;2.70;;;12.10;99.90;;;;;;4248380;27;20051;-68
2024/02/09 05:12:31;;;;;;;8.10;2.25;;;12.10;99.90;;;;;;4231781;28;20105;-69
2024/02/09 05:14:33;;;;;;;10.73;2.55;;;12.20;99.90;;;;;;4250024;27;20043;-74
2024/02/09 05:16:38;;;;;;;10.05;3.40;;;12.20;99.90;;;;;;4230920;28;20062;-68
2024/02/09 05:18:43;;;;;;;6.55;2.38;;;12.20;99.90;;;;;;4249592;27;20070;-67
2024/02/09 05:20:48;;;;;;;6.60;2.38;;;12.20;99.90;;;;;;4249406;27;20066;-68
2024/02/09 05:22:50;;;;;;;7.60;2.85;;;12.20;99.90;;;;;;4248898;27;20054;-67
2024/02/09 05:24:53;;;;;;;8.07;2.47;;;12.20;99.90;;;;;;4248334;27;20051;-68
2024/02/09 05:26:55;;;;;;;7.80;2.35;;;12.10;99.90;;;;;;4248831;27;20047;-69
2024/02/09 05:28:57;;;;;;;7.78;2.33;;;12.20;99.90;;;;;;4248847;27;20070;-67
2024/02/09 05:30:59;;;;;;;9.57;2.78;;;12.20;99.90;;;;;;4249044;27;20487;-67
2024/02/09 05:33:02;;;;;;;9.65;2.90;;;12.20;99.90;;;;;;4248661;27;20104;-66
2024/02/09 05:35:07;;;;;;;9.90;2.83;;;12.30;99.90;;;;;;4248920;27;20047;-68
2024/02/09 05:37:10;;;;;;;10.88;2.47;;;12.30;99.90;;;;;;4261327;27;20098;-67
2024/02/09 05:39:12;;;;;;;12.63;3.97;;;12.30;99.90;;;;;;4265550;27;20046;-67
2024/02/09 05:41:15;;;;;;;6.68;2.33;;;12.30;99.90;;;;;;4265892;27;20042;-67
2024/02/09 05:43:17;;;;;;;7.07;2.42;;;12.30;99.90;;;;;;4266123;27;20072;-68
2024/02/09 05:45:19;;;;;;;7.03;2.38;;;12.30;99.90;;;;;;4265810;27;20042;-68
2024/02/09 05:47:21;;;;;;;7.40;2.15;;;12.30;99.90;;;;;;4265897;27;20039;-68
2024/02/09 05:49:23;;;;;;;9.70;2.38;;;12.30;99.90;;;;;;4265740;27;20047;-68
2024/02/09 05:51:26;;;;;;;14.38;3.22;;;12.30;99.90;;;;;;4265388;27;20047;-69
2024/02/09 05:53:29;;;;;;;9.32;2.67;;;12.30;99.90;;;;;;4265325;27;20082;-68
2024/02/09 05:55:33;;;;;;;6.43;2.58;;;12.30;99.90;;;;;;4266302;27;20077;-67
2024/02/09 05:57:37;;;;;;;9.45;3.20;;;12.40;99.90;;;;;;4266147;27;20053;-69
2024/02/09 05:59:43;;;;;;;9.03;2.60;;;12.30;99.90;;;;;;4266437;27;20049;-68
2024/02/09 06:01:46;;;;;;;9.70;2.60;;;12.40;99.90;;;;;;4266036;27;20050;-68
2024/02/09 06:03:48;;;;;;;7.05;2.40;;;12.30;99.90;;;;;;4266136;27;20126;-67
2024/02/09 06:05:50;;;;;;;13.10;3.05;;;12.30;99.90;;;;;;4266185;27;20492;-69
2024/02/09 06:07:54;;;;;;;8.57;2.78;;;12.30;99.90;;;;;;4265344;27;20046;-68
2024/02/09 06:09:56;;;;;;;6.15;2.42;;;12.30;99.90;;;;;;4247360;27;20544;-68
2024/02/09 06:11:58;;;;;;;8.90;2.70;;;12.40;99.90;;;;;;4265658;27;20054;-67
2024/02/09 06:14:02;;;;;;;8.27;2.38;;;12.40;99.90;;;;;;4265154;27;20469;-67
2024/02/09 06:16:04;;;;;;;6.90;1.90;;;12.40;99.90;;;;;;4265427;27;20070;-68
2024/02/09 06:18:06;;;;;;;6.22;1.92;;;12.30;99.90;;;;;;4265038;27;20088;-68
2024/02/09 06:20:10;;;;;;;7.72;2.65;;;12.30;99.90;;;;;;4246948;27;20043;-70
2024/02/09 06:22:12;;;;;;;8.50;2.63;;;12.40;99.90;;;;;;4264575;27;20398;-67
2024/02/09 06:24:16;;;;;;;7.05;2.20;;;12.40;99.90;;;;;;4264989;27;20106;-68
2024/02/09 06:26:18;;;;;;;7.63;2.60;;;12.40;99.90;;;;;;4265085;27;20481;-66
2024/02/09 06:28:21;;;;;;;7.60;2.60;;;12.30;99.90;;;;;;4265127;27;20047;-66
2024/02/09 06:30:23;;;;;;;12.02;3.00;;;12.40;99.90;;;;;;4264902;27;20050;-69
2024/02/09 06:32:26;;;;;;;8.70;2.58;;;12.40;99.90;;;;;;4265446;27;20093;-65
2024/02/09 06:34:28;;;;;;;7.15;2.70;;;12.40;99.90;;;;;;4247106;27;20043;-69
2024/02/09 06:36:31;;;;;;;11.10;3.03;;;12.50;99.90;;;;;;4264966;27;20499;-69
2024/02/09 06:38:34;;;;;;;10.15;2.78;;;12.40;99.90;;;;;;4265224;27;20053;-72
2024/02/09 06:40:38;;;;;;;9.05;2.45;;;12.40;99.90;;;;;;4265925;27;20470;-66
2024/02/09 06:42:43;;;;;;;8.90;2.38;;;12.40;99.90;;;;;;4265665;27;20039;-70
2024/02/09 06:44:45;;;;;;;9.18;2.30;;;12.40;99.90;;;;;;4265672;27;20477;-70
2024/02/09 06:46:48;;;;;;;10.95;2.63;;;12.40;99.90;;;;;;4265396;27;20049;-69
2024/02/09 06:48:50;;;;;;;11.98;3.00;;;12.40;99.90;;;;;;4265539;27;20043;-72
2024/02/09 06:50:52;;;;;;;8.77;2.28;;;12.40;99.90;;;;;;4265062;27;20249;-66
2024/02/09 06:52:55;;;;;;;11.65;3.10;;;12.40;99.90;;;;;;4264958;27;20049;-71
2024/02/09 06:54:57;;;;;;;10.77;3.10;;;12.40;99.90;;;;;;4264701;27;20483;-65
2024/02/09 06:57:01;;;;;;;15.05;3.28;;;12.40;99.90;;;;;;4265589;27;20067;-67
2024/02/09 06:59:06;;;;;;;13.00;2.65;;;12.50;99.90;;;;;;4265254;27;20042;-66
2024/02/09 07:01:10;;;;;;;10.25;2.88;;;12.50;99.90;;;;;;4264981;27;20424;-67
2024/02/09 07:03:15;;;;;;;6.47;2.08;;;12.40;99.90;;;;;;4265040;27;20043;-67
2024/02/09 07:05:19;;;;;;;7.90;2.78;;;12.40;99.90;;;;;;4264662;27;20054;-67
2024/02/09 07:07:22;;;;;;;6.35;2.67;;;12.40;99.90;;;;;;4265182;27;20053;-67
2024/02/09 07:09:26;;;;;;;10.88;3.10;;;12.40;99.90;;;;;;4265058;27;20049;-68
2024/02/09 07:11:35;;;;;;;5.55;2.40;;;12.40;99.90;;;;;;4264926;27;20470;-68
2024/02/09 07:13:39;;;;;;;8.57;2.80;;;12.40;99.90;;;;;;4265235;27;20043;-67
2024/02/09 07:15:41;;;;;;;5.60;2.60;;;12.40;99.90;;;;;;4266405;27;20043;-67
2024/02/09 07:17:43;;;;;;;7.97;2.47;;;12.40;99.90;;;;;;4268655;27;20455;-67
2024/02/09 07:19:46;;;;;;;12.38;2.40;;;12.40;99.90;;;;;;4268179;27;20122;-67
2024/02/09 07:21:51;;;;;;;6.95;2.80;;;12.50;99.90;;;;;;4268291;27;20058;-70
2024/02/09 07:23:53;;;;;;;13.52;3.28;;;12.50;99.90;;;;;;4268366;27;20050;-66
2024/02/09 07:25:56;;;;;;;15.73;2.85;;;12.40;99.90;;;;;;4268015;27;20042;-66
2024/02/09 07:27:59;;;;;;;8.02;2.60;;;12.50;99.90;;;;;;4268183;27;20091;-67
2024/02/09 07:30:03;;;;;;;11.18;3.03;;;12.50;99.90;;;;;;4268653;27;20046;-67
2024/02/09 07:32:07;;;;;;;10.93;2.83;;;12.50;99.90;;;;;;4268212;27;20081;-70
2024/02/09 07:34:12;;;;;;;12.70;3.03;;;12.50;99.90;;;;;;4268302;27;20057;-67
2024/02/09 07:36:14;;;;;;;12.07;2.60;;;12.40;99.90;;;;;;4267863;27;20042;-68
2024/02/09 07:38:16;;;;;;;9.38;2.25;;;12.40;99.90;;;;;;4268245;27;20152;-68
2024/02/09 07:40:20;;;;;;;9.00;2.40;;;12.50;99.90;;;;;;4267727;27;20439;-66
2024/02/09 07:42:24;;;;;;;6.68;2.35;;;12.50;99.90;;;;;;4267846;27;20047;-67
2024/02/09 07:44:26;;;;;;;8.52;2.70;;;12.40;99.90;;;;;;4268008;27;20081;-67
2024/02/09 07:46:30;;;;;;;9.63;2.83;;;12.40;99.90;;;;;;4267569;27;20046;-67
2024/02/09 07:48:33;;;;;;;7.18;2.63;;;12.50;99.90;;;;;;4268055;27;20054;-67
2024/02/09 07:50:40;;;;;;;11.27;2.88;;;12.50;99.90;;;;;;4268064;27;20413;-68
2024/02/09 07:52:42;;;;;;;13.20;2.70;;;12.50;99.90;;;;;;4268622;27;20057;-68
2024/02/09 07:54:45;;;;;;;14.82;3.13;;;12.50;99.90;;;;;;4268905;27;20054;-69
2024/02/09 07:56:47;;;;;;;10.10;3.00;;;12.50;99.90;;;;;;4269074;27;20066;-72
2024/02/09 07:58:50;;;;;;;9.30;2.55;;;12.50;99.90;;;;;;4268765;27;20112;-70
2024/02/09 08:00:53;;;;;;;9.43;2.70;;;12.60;99.90;;;;;;4268638;27;20262;-68
2024/02/09 08:03:00;;;;;;;10.68;2.72;;;12.60;99.90;;;;;;4267393;27;20103;-69
2024/02/09 08:05:07;;;;;;;13.55;2.70;;;12.60;99.90;;;;;;4268430;27;20106;-68
2024/02/09 08:07:09;;;;;;;10.48;3.05;;;12.60;99.90;;;;;;4269574;27;20134;-69
2024/02/09 08:09:12;;;;;;;9.32;2.83;;;12.60;99.90;;;;;;4268622;27;20043;-67
2024/02/09 08:11:14;;;;;;;9.75;2.80;;;12.60;99.90;;;;;;4249540;27;20047;-65
2024/02/09 08:13:16;;;;;;;11.90;3.13;;;12.60;99.90;;;;;;4267815;27;20612;-66
2024/02/09 08:15:18;;;;;;;7.97;2.70;;;12.60;99.90;;;;;;4267268;27;20478;-66
2024/02/09 08:17:21;;;;;;;10.43;2.90;;;12.60;99.90;;;;;;4267235;27;20412;-65
2024/02/09 08:19:24;;;;;;;9.40;3.28;;;12.60;99.90;;;;;;4266615;27;20043;-66
2024/02/09 08:21:26;;;;;;;11.60;2.70;;;12.60;99.90;;;;;;4266808;27;20054;-65
2024/02/09 08:23:29;;;;;;;15.73;2.90;;;12.60;99.90;;;;;;4267136;27;20062;-66
2024/02/09 08:25:31;;;;;;;10.90;3.30;;;12.60;99.90;;;;;;4266895;27;20046;-66
2024/02/09 08:27:35;;;;;;;11.50;3.42;;;12.60;99.90;;;;;;4266543;27;20050;-67
2024/02/09 08:29:37;;;;;;;13.88;3.40;;;12.60;99.90;;;;;;4266792;27;20042;-66
2024/02/09 08:31:43;;;;;;;7.80;2.70;;;12.60;99.90;;;;;;4266703;27;20079;-67
2024/02/09 08:33:47;;;;;;;10.00;3.15;;;12.60;99.90;;;;;;4266940;27;20166;-66
2024/02/09 08:35:51;;;;;;;12.63;2.72;;;12.60;99.90;;;;;;4266968;27;20091;-66
2024/02/09 08:37:53;;;;;;;11.02;3.00;;;12.60;99.90;;;;;;4267227;27;20066;-67
2024/02/09 08:39:56;;;;;;;12.50;2.97;;;12.60;99.90;;;;;;4267274;27;20142;-70
2024/02/09 08:41:59;;;;;;;13.32;3.67;;;12.60;99.90;;;;;;4267143;27;20061;-69
2024/02/09 08:44:01;;;;;;;13.88;2.90;;;12.60;99.90;;;;;;4266869;27;20043;-68
2024/02/09 08:46:04;;;;;;;15.50;2.78;;;12.60;99.90;;;;;;4266727;27;20046;-69
2024/02/09 08:48:07;;;;;;;7.90;3.17;;;12.60;99.90;;;;;;4267053;27;20431;-69
2024/02/09 08:50:09;;;;;;;18.63;3.70;;;12.70;99.90;;;;;;4268156;27;20046;-71
2024/02/09 08:52:13;;;;;;;8.43;2.70;;;12.70;99.90;;;;;;4268101;27;20047;-69
2024/02/09 08:54:15;;;;;;;13.60;3.65;;;12.70;99.90;;;;;;4267165;27;20130;-70
2024/02/09 08:56:17;;;;;;;12.75;2.70;;;12.70;99.90;;;;;;4267157;27;20557;-69
2024/02/09 08:58:19;;;;;;;11.27;3.35;;;12.70;99.90;;;;;;4248868;27;20096;-68
2024/02/09 09:00:22;;;;;;;9.52;3.03;;;12.70;99.90;;;;;;4267186;27;20038;-69
2024/02/09 09:02:24;;;;;;;13.13;2.72;;;12.70;99.90;;;;;;4266721;27;20394;-70
2024/02/09 09:04:27;;;;;;;13.63;3.40;;;12.80;99.90;;;;;;4266453;27;20099;-69
2024/02/09 09:06:29;;;;;;;12.85;2.97;;;12.80;99.90;;;;;;4267289;27;20053;-69
2024/02/09 09:08:34;;;;;;;9.38;2.60;;;12.80;99.90;;;;;;4266664;27;20410;-68
2024/02/09 09:10:38;;;;;;;11.25;2.53;;;12.80;99.90;;;;;;4266803;27;20126;-68
2024/02/09 09:12:40;;;;;;;15.27;3.60;;;12.80;99.90;;;;;;4267439;27;20046;-71
2024/02/09 09:14:42;;;;;;;13.77;3.47;;;12.80;99.90;;;;;;4267084;27;20127;-67
2024/02/09 09:16:44;;;;;;;17.67;3.58;;;12.90;99.90;;;;;;4266701;27;20413;-68
2024/02/09 09:18:50;;;;;;;15.27;2.65;;;13.00;99.90;;;;;;4266941;27;20039;-71
2024/02/09 09:20:53;;;;;;;11.82;2.83;;;12.90;99.90;;;;;;4267904;27;20126;-70
2024/02/09 09:22:58;;;;;;;9.70;3.00;;;12.80;99.90;;;;;;4267814;27;20496;-68
2024/02/09 09:25:04;;;;;;;13.52;3.60;;;12.90;99.90;;;;;;4267352;27;20508;-70
2024/02/09 09:27:08;;;;;;;15.35;3.53;;;13.00;99.90;;;;;;4266898;27;20043;-69
2024/02/09 09:29:10;;;;;;;12.87;3.50;;;13.00;99.90;;;;;;4267376;27;20081;-69
2024/02/09 09:31:14;;;;;;;17.13;4.07;;;13.00;99.90;;;;;;4267246;27;20450;-68
2024/02/09 09:33:16;;;;;;;20.00;3.78;;;13.00;99.90;;;;;;4267036;27;20079;-67
2024/02/09 09:35:18;;;;;;;16.10;2.88;;;13.00;99.90;;;;;;4266969;27;20486;-68
2024/02/09 09:37:21;;;;;;;13.93;3.58;;;13.10;99.90;;;;;;4266468;27;20039;-67
2024/02/09 09:39:23;;;;;;;16.30;3.20;;;13.00;99.90;;;;;;4266037;27;20046;-67
2024/02/09 09:41:30;;;;;;;11.40;3.25;;;13.00;99.90;;;;;;4266345;27;20121;-67
2024/02/09 09:43:33;;;;;;;12.23;3.80;;;13.10;99.90;;;;;;4247795;27;20043;-67
2024/02/09 09:45:36;;;;;;;14.75;3.67;;;13.10;99.90;;;;;;4265429;27;20377;-67
2024/02/09 09:47:40;;;;;;;14.55;3.95;;;13.20;99.90;;;;;;4247754;27;20043;-66
2024/02/09 09:49:47;;;;;;;20.02;3.30;;;13.30;99.90;;;;;;4267272;27;20259;-65
2024/02/09 09:51:51;;;;;;;19.27;4.45;;;13.40;99.90;;;;;;4248261;27;20047;-67
2024/02/09 09:53:53;;;;;;;10.38;3.03;;;13.40;99.90;;;;;;4248548;27;20062;-68
2024/02/09 09:55:58;;;;;;;15.13;3.80;;;13.40;99.90;;;;;;4266839;27;20155;-65
2024/02/09 09:58:02;;;;;;;13.35;3.28;;;13.50;99.90;;;;;;4266712;27;20066;-65
2024/02/09 10:00:06;;;;;;;16.38;3.80;;;13.50;99.90;;;;;;4265971;27;20042;-65
2024/02/09 10:02:08;;;;;;;16.30;3.30;;;13.60;99.90;;;;;;4265882;27;20429;-65
2024/02/09 10:04:11;;;;;;;14.80;3.65;;;13.60;99.90;;;;;;4265758;27;20054;-66
2024/02/09 10:06:14;;;;;;;21.73;4.65;;;13.70;99.90;;;;;;4265577;27;20049;-66
2024/02/09 10:08:17;;;;;;;14.60;3.97;;;13.70;99.90;;;;;;4265552;27;20054;-66
2024/02/09 10:10:21;;;;;;;19.17;3.20;;;13.70;99.90;;;;;;4265946;27;20042;-66
2024/02/09 10:12:24;;;;;;;19.75;3.80;;;13.80;99.90;;;;;;4265600;27;20087;-66
2024/02/09 10:14:27;;;;;;;16.08;3.33;;;13.80;99.90;;;;;;4264838;27;20283;-70
2024/02/09 10:16:30;;;;;;;21.40;2.97;;;13.90;99.90;;;;;;4265135;27;20053;-66
2024/02/09 10:18:33;;;;;;;21.17;4.10;;;13.80;99.90;;;;;;4265231;27;20039;-68
2024/02/09 10:20:36;;;;;;;18.35;4.05;;;13.90;99.90;;;;;;4265402;27;20130;-68
2024/02/09 10:22:39;;;;;;;15.70;3.30;;;13.90;99.90;;;;;;4265154;27;20057;-68
2024/02/09 10:24:44;;;;;;;20.02;4.40;;;13.90;99.90;;;;;;4265710;27;20054;-70
2024/02/09 10:26:50;;;;;;;14.10;3.38;;;13.90;99.90;;;;;;4265496;27;20121;-68
2024/02/09 10:28:53;;;;;;;17.63;3.65;;;13.80;99.90;;;;;;4264814;27;20045;-68
2024/02/09 10:30:59;;;;;;;19.90;3.95;;;13.80;99.90;;;;;;4265119;27;20121;-68
2024/02/09 10:33:01;;;;;;;15.52;3.70;;;13.80;99.90;;;;;;4265167;27;20534;-68
2024/02/09 10:35:06;;;;;;;23.38;4.53;;;13.80;99.90;;;;;;4265085;27;20039;-69
2024/02/09 10:37:09;;;;;;;15.18;3.60;;;13.70;99.90;;;;;;4265423;27;20047;-69
2024/02/09 10:39:25;;;;;;;23.25;4.75;;;13.70;99.90;;;;;;4265706;27;20043;-68
2024/02/09 10:41:31;;;;;;;18.55;4.85;;;13.80;99.90;;;;;;4265586;27;20069;-68
2024/02/09 10:43:36;;;;;;;21.98;5.20;;;13.90;99.90;;;;;;4264895;27;20126;-69
2024/02/09 10:45:40;;;;;;;;;;;13.90;99.90;;;;;;4265756;27;20088;-69
2024/02/09 10:47:46;;;;;;;18.20;4.18;;;13.90;99.90;;;;;;4264930;27;19958;-68
2024/02/09 10:49:49;;;;;;;25.42;4.85;;;13.80;99.90;;;;;;4267340;27;20387;-69
2024/02/09 10:51:53;;;;;;;21.55;4.82;;;13.90;99.90;;;;;;4269569;27;20118;-69
2024/02/09 10:54:01;;;;;;;22.58;4.72;;;14.00;99.90;;;;;;4268998;27;20054;-68
2024/02/09 10:56:05;;;;;;;28.17;4.95;;;14.00;99.90;;;;;;4270218;27;20042;-72
2024/02/09 10:58:10;;;;;;;17.73;3.45;;;14.00;99.90;;;;;;4270638;27;20047;-71
2024/02/09 11:00:14;;;;;;;11.50;3.75;;;14.00;99.90;;;;;;4268874;27;20401;-70
2024/02/09 11:02:17;;;;;;;15.07;4.28;;;14.00;99.90;;;;;;4249966;27;20105;-68
2024/02/09 11:04:21;;;;;;;20.90;3.83;;;14.00;99.90;;;;;;4268450;27;20455;-68
2024/02/09 11:06:24;;;;;;;17.92;4.32;;;14.00;99.90;;;;;;4268296;27;20053;-69
2024/02/09 11:08:28;;;;;;;20.70;4.93;;;14.00;99.90;;;;;;4268272;27;20469;-67
2024/02/09 11:10:33;;;;;;;21.83;4.85;;;14.10;99.90;;;;;;4268315;27;20053;-69
2024/02/09 11:12:35;;;;;;;18.27;4.20;;;14.20;99.90;;;;;;4268476;27;20119;-68
2024/02/09 11:14:38;;;;;;;16.58;4.55;;;14.10;99.90;;;;;;4268540;27;20038;-68
2024/02/09 11:16:43;;;;;;;19.20;4.22;;;14.20;99.90;;;;;;4250023;27;20099;-69
2024/02/09 11:18:47;;;;;;;14.63;4.10;;;14.20;99.90;;;;;;4268795;27;20051;-68
2024/02/09 11:20:59;;;;;;;21.95;5.10;;;14.20;99.90;;;;;;4269019;27;20054;-69
2024/02/09 11:23:01;;;;;;;15.98;4.13;;;14.20;99.90;;;;;;4267978;27;20077;-68
2024/02/09 11:25:06;;;;;;;21.70;5.20;;;14.20;99.90;;;;;;4268096;27;20050;-68
2024/02/09 11:27:08;;;;;;;20.10;4.40;;;14.20;99.90;;;;;;4267757;27;20074;-68
2024/02/09 11:29:10;;;;;;;19.33;4.93;;;14.30;99.90;;;;;;4250409;27;20055;-67
2024/02/09 11:31:15;;;;;;;13.30;4.38;;;14.30;99.90;;;;;;4268986;27;20117;-67
2024/02/09 11:33:17;;;;;;;11.95;4.07;;;14.40;99.90;;;;;;4268058;27;20042;-66
2024/02/09 11:35:19;;;;;;;17.05;3.97;;;14.40;99.90;;;;;;4268452;27;20100;-66
2024/02/09 11:37:23;;;;;;;20.30;4.90;;;14.50;99.90;;;;;;4267904;27;20170;-67
2024/02/09 11:39:26;;;;;;;21.45;4.53;;;14.60;99.90;;;;;;4267908;27;20509;-68
2024/02/09 11:41:29;;;;;;;15.57;4.28;;;14.50;99.90;;;;;;4267994;27;20099;-70
2024/02/09 11:43:31;;;;;;;17.90;4.78;;;14.50;99.90;;;;;;4268070;27;20042;-67
2024/02/09 11:45:36;;;;;;;21.88;6.57;;;14.50;99.90;;;;;;4269003;27;20046;-69
2024/02/09 11:47:41;;;;;;;18.02;5.15;;;14.60;99.90;;;;;;4253343;27;20071;-67
2024/02/09 11:49:43;;;;;;;17.70;5.28;;;14.70;99.90;;;;;;4271918;27;20057;-69
2024/02/09 11:51:45;;;;;;;20.08;5.00;;;14.60;99.90;;;;;;4272512;27;20043;-69
2024/02/09 11:53:51;;;;;;;18.23;3.75;;;14.60;99.90;;;;;;4271198;27;20107;-69
2024/02/09 11:55:56;;;;;;;12.93;3.58;;;14.60;99.90;;;;;;4270358;27;20038;-68
2024/02/09 11:57:59;;;;;;;18.73;3.92;;;14.60;99.90;;;;;;4269034;27;20053;-69
2024/02/09 12:00:03;;;;;;;23.88;4.35;;;14.60;99.90;;;;;;4268504;27;20063;-71
2024/02/09 12:02:06;;;;;;;15.13;4.00;;;14.60;99.90;;;;;;4267139;27;20122;-68
2024/02/09 12:04:08;;;;;;;14.23;3.65;;;14.50;99.90;;;;;;4267496;27;20043;-69
2024/02/09 12:06:11;;;;;;;17.58;4.20;;;14.50;99.90;;;;;;4258011;27;20039;-69
2024/02/09 12:08:17;;;;;;;16.35;4.07;;;14.60;99.90;;;;;;4251267;27;20043;-70
2024/02/09 12:10:21;;;;;;;17.80;4.32;;;14.50;99.90;;;;;;4252261;27;20038;-69
2024/02/09 12:12:23;;;;;;;18.75;3.92;;;14.60;99.90;;;;;;4259637;27;20504;-69
2024/02/09 12:14:26;;;;;;;17.23;4.50;;;14.50;99.90;;;;;;4267146;27;20226;-70
2024/02/09 12:16:31;;;;;;;20.40;4.45;;;14.50;99.90;;;;;;4267282;27;20043;-70
2024/02/09 12:18:33;;;;;;;23.05;5.00;;;14.60;99.90;;;;;;4267270;27;20087;-69
2024/02/09 12:20:36;;;;;;;16.33;3.92;;;14.50;99.90;;;;;;4263238;27;20520;-72
2024/02/09 12:22:39;;;;;;;21.13;5.15;;;14.50;99.90;;;;;;4251339;27;20365;-72
2024/02/09 12:24:43;;;;;;;15.60;4.20;;;14.50;99.90;;;;;;4249790;27;20043;-69
2024/02/09 12:26:46;;;;;;;16.58;4.18;;;14.60;99.90;;;;;;4250010;27;20047;-69
2024/02/09 12:28:49;;;;;;;19.55;4.70;;;14.60;99.90;;;;;;4249788;27;20400;-74
2024/02/09 12:30:51;;;;;;;18.30;4.65;;;14.60;99.90;;;;;;4249290;27;20157;-72
2024/02/09 12:32:53;;;;;;;22.15;4.57;;;14.70;99.90;;;;;;4248937;27;20123;-71
2024/02/09 12:34:56;;;;;;;14.93;4.30;;;14.80;99.90;;;;;;4251217;27;20042;-69
2024/02/09 12:36:59;;;;;;;15.75;3.97;;;14.80;99.90;;;;;;4259513;27;20118;-69
2024/02/09 12:39:07;;;;;;;14.95;3.53;;;14.70;99.90;;;;;;4265816;27;20053;-69
2024/02/09 12:41:09;;;;;;;17.80;4.65;;;14.70;99.90;;;;;;4262523;27;20452;-68